createdAt,value
2023-02-23T00:02:14.212Z,20.98
2023-02-23T00:05:15.453Z,20.05
2023-02-23T00:08:16.345Z,20.80
2023-02-23T00:11:19.341Z,19.83
2023-02-23T00:14:24.800Z,21.42
2023-02-23T00:17:25.842Z,21.52
2023-02-23T00:20:28.102Z,22.10
2023-02-23T00:23:28.816Z,20.45
2023-02-23T00:26:35.273Z,19.63
2023-02-23T00:29:40.162Z,19.93
2023-02-23T00:32:42.026Z,20.45
2023-02-23T00:35:43.005Z,20.50
2023-02-23T00:38:46.119Z,19.20
2023-02-23T00:41:48.814Z,18.83
2023-02-23T00:44:50.127Z,19.02
2023-02-23T00:47:50.947Z,19.42
2023-02-23T00:51:03.818Z,18.55
2023-02-23T00:54:05.690Z,19.67
2023-02-23T00:57:08.057Z,18.50
2023-02-23T01:00:20.332Z,18.90
2023-02-23T01:03:22.398Z,20.40
2023-02-23T01:06:23.593Z,19.42
2023-02-23T01:09:28.527Z,19.40
2023-02-23T01:12:29.380Z,19.25
2023-02-23T01:15:30.278Z,19.80
2023-02-23T01:18:35.433Z,20.83
2023-02-23T01:21:42.245Z,20.20
2023-02-23T01:24:43.357Z,22.37
2023-02-23T01:27:45.581Z,24.08
2023-02-23T01:30:46.874Z,25.35
2023-02-23T01:33:48.158Z,24.92
2023-02-23T01:36:49.899Z,24.55
2023-02-23T01:39:50.831Z,25.70
2023-02-23T01:42:51.621Z,24.70
2023-02-23T01:45:58.221Z,25.23
2023-02-23T01:49:00.103Z,27.05
2023-02-23T01:52:10.939Z,26.83
2023-02-23T01:55:15.587Z,27.77
2023-02-23T01:58:20.166Z,27.15
2023-02-23T02:01:22.429Z,29.23
2023-02-23T02:04:25.469Z,28.15
2023-02-23T02:07:35.404Z,29.55
2023-02-23T02:10:41.083Z,30.60
2023-02-23T02:13:42.334Z,29.95
2023-02-23T02:17:06.987Z,30.00
2023-02-23T02:20:33.291Z,30.63
2023-02-23T02:24:29.810Z,30.27
2023-02-23T02:28:13.553Z,32.40
2023-02-23T02:31:45.080Z,32.75
2023-02-23T02:34:56.785Z,34.22
2023-02-23T02:38:04.038Z,35.25
2023-02-23T02:41:35.708Z,37.00
2023-02-23T02:45:02.852Z,34.92
2023-02-23T02:48:25.890Z,36.65
2023-02-23T02:51:41.013Z,33.92
2023-02-23T02:54:49.741Z,33.97
2023-02-23T02:57:56.824Z,36.78
2023-02-23T03:01:26.874Z,36.13
2023-02-23T03:04:46.376Z,36.85
2023-02-23T03:08:35.895Z,34.97
2023-02-23T03:12:11.733Z,33.65
2023-02-23T03:15:51.290Z,35.33
2023-02-23T03:19:38.019Z,35.65
2023-02-23T03:23:33.311Z,32.45
2023-02-23T03:27:02.230Z,31.50
2023-02-23T03:30:37.513Z,28.27
2023-02-23T03:34:19.031Z,29.15
2023-02-23T03:37:50.424Z,26.65
2023-02-23T03:41:14.121Z,26.92
2023-02-23T03:44:52.435Z,28.25
2023-02-23T03:48:14.899Z,26.85
2023-02-23T03:51:38.468Z,27.05
2023-02-23T03:55:37.431Z,27.17
2023-02-23T03:59:05.891Z,27.25
2023-02-23T04:02:30.460Z,31.58
2023-02-23T04:05:54.102Z,32.28
2023-02-23T04:09:20.193Z,32.75
2023-02-23T04:13:09.618Z,32.25
2023-02-23T04:16:12.196Z,32.92
2023-02-23T04:19:13.215Z,32.65
2023-02-23T04:22:13.988Z,31.27
2023-02-23T04:25:18.093Z,32.03
2023-02-23T04:28:20.594Z,30.85
2023-02-23T04:31:25.410Z,32.95
2023-02-23T04:34:26.754Z,32.47
2023-02-23T04:37:27.601Z,32.80
2023-02-23T04:40:29.399Z,30.77
2023-02-23T04:43:30.260Z,30.23
2023-02-23T04:46:31.138Z,33.10
2023-02-23T04:49:31.886Z,37.75
2023-02-23T04:52:33.138Z,39.80
2023-02-23T04:55:34.436Z,38.22
2023-02-23T04:58:35.196Z,36.55
2023-02-23T05:01:37.388Z,38.67
2023-02-23T05:04:38.428Z,38.85
2023-02-23T05:07:39.653Z,42.45
2023-02-23T05:10:40.554Z,42.47
2023-02-23T05:13:41.652Z,42.03
2023-02-23T05:16:42.641Z,41.03
2023-02-23T05:19:43.265Z,40.10
2023-02-23T05:22:44.052Z,43.65
2023-02-23T05:25:44.873Z,41.55
2023-02-23T05:28:45.892Z,41.20
2023-02-23T05:31:48.753Z,43.78
2023-02-23T05:34:49.928Z,45.38
2023-02-23T05:37:51.271Z,43.58
2023-02-23T05:40:52.337Z,43.63
2023-02-23T05:43:55.874Z,41.97
2023-02-23T05:46:57.069Z,44.03
2023-02-23T05:49:57.801Z,44.42
2023-02-23T05:52:58.503Z,42.83
2023-02-23T05:55:59.536Z,47.22
2023-02-23T05:59:02.556Z,47.65
2023-02-23T06:02:06.216Z,46.45
2023-02-23T06:05:08.679Z,44.75
2023-02-23T06:08:09.917Z,47.33
2023-02-23T06:11:11.042Z,48.20
2023-02-23T06:14:12.008Z,48.45
2023-02-23T06:17:13.298Z,48.90
2023-02-23T06:20:14.950Z,47.67
2023-02-23T06:23:15.884Z,47.90
2023-02-23T06:26:16.604Z,44.70
2023-02-23T06:29:17.325Z,46.20
2023-02-23T06:32:18.151Z,48.15
2023-02-23T06:35:22.288Z,47.97
2023-02-23T06:38:24.061Z,49.35
2023-02-23T06:41:26.792Z,45.72
2023-02-23T06:44:27.842Z,44.65
2023-02-23T06:47:29.088Z,45.13
2023-02-23T06:50:29.945Z,42.75
2023-02-23T06:53:31.457Z,45.80
2023-02-23T06:56:32.483Z,44.80
2023-02-23T06:59:33.115Z,39.20
2023-02-23T07:02:35.740Z,39.60
2023-02-23T07:05:37.112Z,40.22
2023-02-23T07:08:38.930Z,39.08
2023-02-23T07:11:41.811Z,43.72
2023-02-23T07:14:43.120Z,35.65
2023-02-23T07:17:45.270Z,38.80
2023-02-23T07:20:46.866Z,39.50
2023-02-23T07:23:49.959Z,38.33
2023-02-23T07:26:52.289Z,32.90
2023-02-23T07:29:53.414Z,34.40
2023-02-23T07:32:54.609Z,34.58
2023-02-23T07:35:55.406Z,31.83
2023-02-23T07:38:56.158Z,31.55
2023-02-23T07:41:57.882Z,27.73
2023-02-23T07:44:58.877Z,25.40
2023-02-23T07:48:00.171Z,22.63
2023-02-23T07:51:01.518Z,24.55
2023-02-23T07:54:05.088Z,21.63
2023-02-23T07:57:06.208Z,18.67
2023-02-23T08:00:08.408Z,17.77
2023-02-23T08:03:15.034Z,17.20
2023-02-23T08:06:17.838Z,17.90
2023-02-23T08:09:18.770Z,17.48
2023-02-23T08:12:19.949Z,17.48
2023-02-23T08:15:21.320Z,16.92
2023-02-23T08:18:22.516Z,16.98
2023-02-23T08:21:24.469Z,16.92
2023-02-23T08:24:26.705Z,13.73
2023-02-23T08:27:27.791Z,13.27
2023-02-23T08:30:28.940Z,14.68
2023-02-23T08:33:31.804Z,14.88
2023-02-23T08:36:33.338Z,14.57
2023-02-23T08:39:34.635Z,13.35
2023-02-23T08:42:35.714Z,13.55
2023-02-23T08:45:39.733Z,13.27
2023-02-23T08:48:40.867Z,12.75
2023-02-23T08:51:43.159Z,13.35
2023-02-23T08:54:44.412Z,12.98
2023-02-23T08:57:45.039Z,13.35
2023-02-23T09:00:45.807Z,13.40
2023-02-23T09:03:46.719Z,14.00
2023-02-23T09:06:49.569Z,13.25
2023-02-23T09:09:57.321Z,11.98
2023-02-23T09:12:58.354Z,11.25
2023-02-23T09:15:59.219Z,10.13
2023-02-23T09:19:01.505Z,11.48
2023-02-23T09:22:02.367Z,12.25
2023-02-23T09:25:03.041Z,11.05
2023-02-23T09:28:03.882Z,11.25
2023-02-23T09:31:10.494Z,11.52
2023-02-23T09:34:12.848Z,10.52
2023-02-23T09:37:13.939Z,9.68
2023-02-23T09:40:29.645Z,10.18
2023-02-23T09:43:51.628Z,10.40
2023-02-23T09:47:30.867Z,9.70
2023-02-23T09:50:35.121Z,10.00
2023-02-23T09:53:55.264Z,10.02
2023-02-23T09:56:58.497Z,9.18
2023-02-23T09:59:59.172Z,9.02
2023-02-23T10:03:34.729Z,9.55
2023-02-23T10:06:35.800Z,9.45
2023-02-23T10:10:07.470Z,9.15
2023-02-23T10:13:48.573Z,8.48
2023-02-23T10:17:45.175Z,8.82
2023-02-23T10:20:57.886Z,8.35
2023-02-23T10:24:07.102Z,7.03
2023-02-23T10:27:18.567Z,7.47
2023-02-23T10:30:30.444Z,7.85
2023-02-23T10:33:42.194Z,7.82
2023-02-23T10:37:06.488Z,7.93
2023-02-23T10:40:15.627Z,13.20
2023-02-23T10:43:17.048Z,16.83
2023-02-23T10:46:30.551Z,16.90
2023-02-23T10:49:53.204Z,16.60
2023-02-23T10:53:04.757Z,15.38
2023-02-23T10:56:14.143Z,13.38
2023-02-23T10:59:21.737Z,13.90
2023-02-23T11:02:26.788Z,13.13
2023-02-23T11:05:50.754Z,13.30
2023-02-23T11:08:51.544Z,13.10
2023-02-23T11:12:07.510Z,14.30
2023-02-23T11:15:48.112Z,14.43
2023-02-23T11:19:01.865Z,14.48
2023-02-23T11:22:08.415Z,14.43
2023-02-23T11:25:32.764Z,14.82
2023-02-23T11:28:41.508Z,13.07
2023-02-23T11:31:52.569Z,14.73
2023-02-23T11:35:21.166Z,13.10
2023-02-23T11:38:22.385Z,12.07
2023-02-23T11:41:24.651Z,13.45
2023-02-23T11:44:25.883Z,12.23
2023-02-23T11:47:27.101Z,13.32
2023-02-23T11:50:35.847Z,12.50
2023-02-23T11:53:44.303Z,12.85
2023-02-23T11:56:55.311Z,12.60
2023-02-23T12:00:08.945Z,11.77
2023-02-23T12:06:35.460Z,11.27
2023-02-23T12:09:37.000Z,11.45
2023-02-23T12:13:27.856Z,12.02
2023-02-23T12:16:39.487Z,11.48
2023-02-23T12:19:49.399Z,11.82
2023-02-23T12:23:20.326Z,11.65
2023-02-23T12:26:23.675Z,11.13
2023-02-23T12:29:55.609Z,11.30
2023-02-23T12:33:13.515Z,12.23
2023-02-23T12:36:42.918Z,14.13
2023-02-23T12:39:51.731Z,12.50
2023-02-23T12:43:16.102Z,12.48
2023-02-23T12:46:47.714Z,13.75
2023-02-23T12:50:18.685Z,12.60
2023-02-23T12:53:39.968Z,13.73
2023-02-23T12:56:59.049Z,14.30
2023-02-23T13:00:31.391Z,14.20
2023-02-23T13:04:01.870Z,13.13
2023-02-23T13:07:25.499Z,12.77
2023-02-23T13:10:56.461Z,13.95
2023-02-23T13:14:20.498Z,12.82
2023-02-23T13:17:48.802Z,13.70
2023-02-23T13:21:33.641Z,11.85
2023-02-23T13:24:46.354Z,12.25
2023-02-23T13:28:00.227Z,12.65
2023-02-23T13:31:02.983Z,11.43
2023-02-23T13:34:12.791Z,11.55
2023-02-23T13:37:20.676Z,12.60
2023-02-23T13:40:42.871Z,11.85
2023-02-23T13:44:07.890Z,11.85
2023-02-23T13:47:15.062Z,10.70
2023-02-23T13:50:29.567Z,11.82
2023-02-23T13:53:44.278Z,11.60
2023-02-23T13:56:53.393Z,11.95
2023-02-23T13:59:55.392Z,10.88
2023-02-23T14:02:56.990Z,10.77
2023-02-23T14:06:01.526Z,11.13
2023-02-23T14:09:12.018Z,11.75
2023-02-23T14:12:39.046Z,13.07
2023-02-23T14:15:42.452Z,12.48
2023-02-23T14:19:05.732Z,13.23
2023-02-23T14:22:18.667Z,13.38
2023-02-23T14:25:34.798Z,13.43
2023-02-23T14:28:39.505Z,14.18
2023-02-23T14:32:02.404Z,12.05
2023-02-23T14:35:03.784Z,12.23
2023-02-23T14:38:08.578Z,13.93
2023-02-23T14:41:12.207Z,14.13
2023-02-23T14:44:28.917Z,13.05
2023-02-23T14:47:45.847Z,13.73
2023-02-23T14:50:47.127Z,13.40
2023-02-23T14:53:48.213Z,13.35
2023-02-23T14:56:54.264Z,13.40
2023-02-23T15:00:00.977Z,16.10
2023-02-23T15:03:12.737Z,14.68
2023-02-23T15:06:14.145Z,14.50
2023-02-23T15:09:32.399Z,14.25
2023-02-23T15:12:38.531Z,13.57
2023-02-23T15:15:47.578Z,13.93
2023-02-23T15:18:49.210Z,14.23
2023-02-23T15:21:53.887Z,13.38
2023-02-23T15:25:00.899Z,13.18
2023-02-23T15:28:19.995Z,12.07
2023-02-23T15:31:21.771Z,11.30
2023-02-23T15:34:26.917Z,11.10
2023-02-23T15:38:11.091Z,12.27
2023-02-23T15:41:30.564Z,11.40
2023-02-23T15:44:43.589Z,10.07
2023-02-23T15:47:45.285Z,9.88
2023-02-23T15:50:53.392Z,10.02
2023-02-23T15:53:55.529Z,9.80
2023-02-23T15:57:03.855Z,10.48
2023-02-23T16:00:36.880Z,11.27
2023-02-23T16:03:55.023Z,10.95
2023-02-23T16:07:11.893Z,10.75
2023-02-23T16:10:25.294Z,10.35
2023-02-23T16:13:27.555Z,10.40
2023-02-23T16:16:28.914Z,9.00
2023-02-23T16:19:31.695Z,10.13
2023-02-23T16:22:33.038Z,10.15
2023-02-23T16:25:35.174Z,10.98
2023-02-23T16:28:42.991Z,10.45
2023-02-23T16:31:54.933Z,9.80
2023-02-23T16:35:02.563Z,11.82
2023-02-23T16:38:13.133Z,9.55
2023-02-23T16:41:22.236Z,10.93
2023-02-23T16:44:28.482Z,10.05
2023-02-23T16:47:43.758Z,10.07
2023-02-23T16:50:45.912Z,10.60
2023-02-23T16:53:47.074Z,9.30
2023-02-23T16:56:49.131Z,9.23
2023-02-23T16:59:52.954Z,9.35
2023-02-23T17:02:55.883Z,8.75
2023-02-23T17:05:57.149Z,10.15
2023-02-23T17:08:58.450Z,8.88
2023-02-23T17:12:00.061Z,9.77
2023-02-23T17:15:04.438Z,9.07
2023-02-23T17:18:06.366Z,9.63
2023-02-23T17:21:12.026Z,9.45
2023-02-23T17:24:13.248Z,10.65
2023-02-23T17:27:14.599Z,9.80
2023-02-23T17:30:15.805Z,10.52
2023-02-23T17:33:17.444Z,10.70
2023-02-23T17:36:18.663Z,10.52
2023-02-23T17:39:19.717Z,10.15
2023-02-23T17:42:20.804Z,10.55
2023-02-23T17:45:22.836Z,10.27
2023-02-23T17:48:26.458Z,9.95
2023-02-23T17:51:27.893Z,10.15
2023-02-23T17:54:30.381Z,10.57
2023-02-23T17:57:31.441Z,10.32
2023-02-23T18:00:37.889Z,10.10
2023-02-23T18:03:39.016Z,9.80
2023-02-23T18:06:40.195Z,11.45
2023-02-23T18:09:41.674Z,16.65
2023-02-23T18:12:42.898Z,18.38
2023-02-23T18:15:53.209Z,17.00
2023-02-23T18:18:57.686Z,12.77
2023-02-23T18:21:58.755Z,11.88
2023-02-23T18:24:59.798Z,11.45
2023-02-23T18:28:00.826Z,11.00
2023-02-23T18:31:02.448Z,10.88
2023-02-23T18:34:03.193Z,11.18
2023-02-23T18:37:05.839Z,11.50
2023-02-23T18:40:07.460Z,10.35
2023-02-23T18:43:09.363Z,10.60
2023-02-23T18:46:13.287Z,10.85
2023-02-23T18:49:20.927Z,10.13
2023-02-23T18:52:21.918Z,9.63
2023-02-23T18:55:23.627Z,9.68
2023-02-23T18:58:24.700Z,9.95
2023-02-23T19:01:29.494Z,11.07
2023-02-23T19:04:30.686Z,11.18
2023-02-23T19:07:32.567Z,10.30
2023-02-23T19:10:34.197Z,10.75
2023-02-23T19:13:38.099Z,12.30
2023-02-23T19:16:41.198Z,11.20
2023-02-23T19:19:42.362Z,11.25
2023-02-23T19:22:43.405Z,10.77
2023-02-23T19:25:49.262Z,10.75
2023-02-23T19:28:50.133Z,10.40
2023-02-23T19:31:51.402Z,10.10
2023-02-23T19:34:52.613Z,11.43
2023-02-23T19:37:54.515Z,9.10
2023-02-23T19:40:55.955Z,9.40
2023-02-23T19:43:58.541Z,9.43
2023-02-23T19:46:59.714Z,8.10
2023-02-23T19:50:00.535Z,8.57
2023-02-23T19:53:01.734Z,10.88
2023-02-23T19:56:07.693Z,10.40
2023-02-23T19:59:08.445Z,9.43
2023-02-23T20:02:11.598Z,9.10
2023-02-23T20:05:16.315Z,9.52
2023-02-23T20:08:19.467Z,10.00
2023-02-23T20:11:20.570Z,10.18
2023-02-23T20:14:21.657Z,11.52
2023-02-23T20:17:22.281Z,13.52
2023-02-23T20:20:25.762Z,11.85
2023-02-23T20:23:26.600Z,12.32
2023-02-23T20:26:35.669Z,14.73
2023-02-23T20:29:37.052Z,16.25
2023-02-23T20:32:38.490Z,17.00
2023-02-23T20:35:39.858Z,16.65
2023-02-23T20:38:40.638Z,16.65
2023-02-23T20:41:44.213Z,17.13
2023-02-23T20:44:45.270Z,17.95
2023-02-23T20:47:47.363Z,16.25
2023-02-23T20:50:54.942Z,15.27
2023-02-23T20:57:07.502Z,14.93
2023-02-23T21:00:10.443Z,15.20
2023-02-23T21:03:11.626Z,15.70
2023-02-23T21:06:12.963Z,15.68
2023-02-23T21:09:23.058Z,14.75
2023-02-23T21:12:24.033Z,16.02
2023-02-23T21:15:25.655Z,17.98
2023-02-23T21:18:31.524Z,15.43
2023-02-23T21:21:48.851Z,17.10
2023-02-23T21:24:49.811Z,18.10
2023-02-23T21:27:51.953Z,15.15
2023-02-23T21:30:53.419Z,16.58
2023-02-23T21:33:54.780Z,14.30
2023-02-23T21:36:59.353Z,13.18
2023-02-23T21:40:00.693Z,14.48
2023-02-23T21:43:01.413Z,13.40
2023-02-23T21:46:14.973Z,12.68
2023-02-23T21:49:16.699Z,12.07
2023-02-23T21:52:18.343Z,13.00
2023-02-23T21:55:22.781Z,12.93
2023-02-23T21:58:25.169Z,12.63
2023-02-23T22:01:34.849Z,12.60
2023-02-23T22:04:37.167Z,10.65
2023-02-23T22:07:38.376Z,11.00
2023-02-23T22:10:39.514Z,10.93
2023-02-23T22:13:40.275Z,10.18
2023-02-23T22:16:42.227Z,11.25
2023-02-23T22:19:43.015Z,10.50
2023-02-23T22:22:43.825Z,12.48
2023-02-23T22:25:47.016Z,13.70
2023-02-23T22:28:48.121Z,12.65
2023-02-23T22:31:49.655Z,12.57
2023-02-23T22:34:50.656Z,13.82
2023-02-23T22:37:51.502Z,14.30
2023-02-23T22:40:52.210Z,12.80
2023-02-23T22:43:53.220Z,12.25
2023-02-23T22:46:53.765Z,13.52
2023-02-23T22:49:54.854Z,11.80
2023-02-23T22:52:55.854Z,11.18
2023-02-23T22:55:57.752Z,11.38
2023-02-23T22:59:06.216Z,11.77
2023-02-23T23:02:06.922Z,12.23
2023-02-23T23:05:09.161Z,11.75
2023-02-23T23:08:10.284Z,11.20
2023-02-23T23:11:15.748Z,11.13
2023-02-23T23:14:19.492Z,11.15
2023-02-23T23:17:20.531Z,10.55
2023-02-23T23:20:25.963Z,10.60
2023-02-23T23:23:27.146Z,10.68
2023-02-23T23:26:29.826Z,10.48
2023-02-23T23:29:30.879Z,10.75
2023-02-23T23:32:33.703Z,11.05
2023-02-23T23:35:34.848Z,11.02
2023-02-23T23:38:35.941Z,11.20
2023-02-23T23:41:37.357Z,11.88
2023-02-23T23:44:38.382Z,10.80
2023-02-23T23:47:39.690Z,13.07
2023-02-23T23:50:40.769Z,15.77
2023-02-23T23:53:42.558Z,14.77
2023-02-23T23:56:44.349Z,14.35
2023-02-23T23:59:46.389Z,12.63
